sensor_id;sensor_type;location;lat;lon;timestamp;P1;durP1;ratioP1;P2;durP2;ratioP2
52964;SDS011;42923;53.220;6.528;2023-05-02T00:02:10;7.80;;;4.25;;
52964;SDS011;42923;53.220;6.528;2023-05-02T00:04:36;13.82;;;6.28;;
52964;SDS011;42923;53.220;6.528;2023-05-02T00:07:01;10.88;;;4.38;;
52964;SDS011;42923;53.220;6.528;2023-05-02T00:09:28;12.50;;;4.47;;
52964;SDS011;42923;53.220;6.528;2023-05-02T00:11:54;8.93;;;4.25;;
52964;SDS011;42923;53.220;6.528;2023-05-02T00:14:19;13.15;;;4.50;;
52964;SDS011;42923;53.220;6.528;2023-05-02T00:16:45;13.73;;;4.90;;
52964;SDS011;42923;53.220;6.528;2023-05-02T00:19:11;8.60;;;3.90;;
52964;SDS011;42923;53.220;6.528;2023-05-02T00:21:36;8.00;;;3.38;;
52964;SDS011;42923;53.220;6.528;2023-05-02T00:24:02;11.35;;;3.72;;
52964;SDS011;42923;53.220;6.528;2023-05-02T00:26:28;11.68;;;4.00;;
52964;SDS011;42923;53.220;6.528;2023-05-02T00:28:55;10.55;;;4.00;;
52964;SDS011;42923;53.220;6.528;2023-05-02T00:31:21;10.75;;;4.07;;
52964;SDS011;42923;53.220;6.528;2023-05-02T00:33:47;8.88;;;3.45;;
52964;SDS011;42923;53.220;6.528;2023-05-02T00:36:14;6.82;;;3.58;;
52964;SDS011;42923;53.220;6.528;2023-05-02T00:38:41;13.77;;;4.05;;
52964;SDS011;42923;53.220;6.528;2023-05-02T00:41:06;8.90;;;4.13;;
52964;SDS011;42923;53.220;6.528;2023-05-02T00:43:32;16.52;;;4.88;;
52964;SDS011;42923;53.220;6.528;2023-05-02T00:45:58;10.25;;;4.38;;
52964;SDS011;42923;53.220;6.528;2023-05-02T00:48:24;10.27;;;3.78;;
52964;SDS011;42923;53.220;6.528;2023-05-02T00:50:50;11.93;;;4.55;;
52964;SDS011;42923;53.220;6.528;2023-05-02T00:53:16;9.40;;;3.58;;
52964;SDS011;42923;53.220;6.528;2023-05-02T00:55:42;9.80;;;3.83;;
52964;SDS011;42923;53.220;6.528;2023-05-02T00:58:12;10.25;;;3.10;;
52964;SDS011;42923;53.220;6.528;2023-05-02T01:03:59;10.30;;;4.20;;
52964;SDS011;42923;53.220;6.528;2023-05-02T01:11:41;7.38;;;3.88;;
52964;SDS011;42923;53.220;6.528;2023-05-02T01:14:16;9.52;;;3.55;;
52964;SDS011;42923;53.220;6.528;2023-05-02T01:16:42;14.45;;;3.90;;
52964;SDS011;42923;53.220;6.528;2023-05-02T01:19:53;7.68;;;3.53;;
52964;SDS011;42923;53.220;6.528;2023-05-02T01:22:02;12.57;;;4.05;;
52964;SDS011;42923;53.220;6.528;2023-05-02T01:24:34;11.90;;;4.22;;
52964;SDS011;42923;53.220;6.528;2023-05-02T01:27:27;10.20;;;3.70;;
52964;SDS011;42923;53.220;6.528;2023-05-02T01:30:01;11.38;;;3.88;;
52964;SDS011;42923;53.220;6.528;2023-05-02T01:32:28;10.50;;;4.22;;
52964;SDS011;42923;53.220;6.528;2023-05-02T01:34:57;15.85;;;4.63;;
52964;SDS011;42923;53.220;6.528;2023-05-02T01:37:25;17.23;;;4.80;;
52964;SDS011;42923;53.220;6.528;2023-05-02T01:39:53;15.05;;;3.70;;
52964;SDS011;42923;53.220;6.528;2023-05-02T01:42:21;20.70;;;4.25;;
52964;SDS011;42923;53.220;6.528;2023-05-02T01:44:49;19.88;;;4.45;;
52964;SDS011;42923;53.220;6.528;2023-05-02T01:47:17;15.07;;;4.78;;
52964;SDS011;42923;53.220;6.528;2023-05-02T01:49:45;19.80;;;5.30;;
52964;SDS011;42923;53.220;6.528;2023-05-02T01:52:11;15.60;;;4.22;;
52964;SDS011;42923;53.220;6.528;2023-05-02T01:54:39;19.38;;;4.47;;
52964;SDS011;42923;53.220;6.528;2023-05-02T01:57:06;18.67;;;4.50;;
52964;SDS011;42923;53.220;6.528;2023-05-02T01:59:34;13.52;;;3.35;;
52964;SDS011;42923;53.220;6.528;2023-05-02T02:02:04;14.35;;;3.88;;
52964;SDS011;42923;53.220;6.528;2023-05-02T02:04:32;24.10;;;4.93;;
52964;SDS011;42923;53.220;6.528;2023-05-02T02:07:01;15.38;;;4.25;;
52964;SDS011;42923;53.220;6.528;2023-05-02T02:09:30;17.65;;;4.97;;
52964;SDS011;42923;53.220;6.528;2023-05-02T02:12:06;17.95;;;5.00;;
52964;SDS011;42923;53.220;6.528;2023-05-02T02:20:01;19.58;;;4.57;;
52964;SDS011;42923;53.220;6.528;2023-05-02T02:22:29;14.00;;;4.63;;
52964;SDS011;42923;53.220;6.528;2023-05-02T02:25:00;14.45;;;3.50;;
52964;SDS011;42923;53.220;6.528;2023-05-02T02:27:29;14.93;;;4.72;;
52964;SDS011;42923;53.220;6.528;2023-05-02T02:29:55;25.90;;;5.07;;
52964;SDS011;42923;53.220;6.528;2023-05-02T02:32:21;13.23;;;3.80;;
52964;SDS011;42923;53.220;6.528;2023-05-02T02:34:47;15.30;;;4.93;;
52964;SDS011;42923;53.220;6.528;2023-05-02T02:37:19;21.08;;;3.95;;
52964;SDS011;42923;53.220;6.528;2023-05-02T02:40:03;25.02;;;6.05;;
52964;SDS011;42923;53.220;6.528;2023-05-02T02:48:33;20.35;;;5.05;;
52964;SDS011;42923;53.220;6.528;2023-05-02T02:56:36;13.13;;;3.80;;
52964;SDS011;42923;53.220;6.528;2023-05-02T02:59:08;16.02;;;3.30;;
52964;SDS011;42923;53.220;6.528;2023-05-02T03:01:41;15.05;;;3.55;;
52964;SDS011;42923;53.220;6.528;2023-05-02T03:04:10;18.88;;;4.85;;
52964;SDS011;42923;53.220;6.528;2023-05-02T03:06:40;13.32;;;2.78;;
52964;SDS011;42923;53.220;6.528;2023-05-02T03:09:13;7.47;;;2.83;;
52964;SDS011;42923;53.220;6.528;2023-05-02T03:11:43;15.77;;;3.00;;
52964;SDS011;42923;53.220;6.528;2023-05-02T03:14:13;10.13;;;2.40;;
52964;SDS011;42923;53.220;6.528;2023-05-02T03:16:39;8.48;;;2.75;;
52964;SDS011;42923;53.220;6.528;2023-05-02T03:19:10;9.07;;;2.80;;
52964;SDS011;42923;53.220;6.528;2023-05-02T03:21:36;10.98;;;3.05;;
52964;SDS011;42923;53.220;6.528;2023-05-02T03:24:09;17.80;;;3.45;;
52964;SDS011;42923;53.220;6.528;2023-05-02T03:26:35;9.45;;;3.17;;
52964;SDS011;42923;53.220;6.528;2023-05-02T03:29:02;14.57;;;4.75;;
52964;SDS011;42923;53.220;6.528;2023-05-02T03:31:33;15.45;;;3.17;;
52964;SDS011;42923;53.220;6.528;2023-05-02T03:33:59;11.70;;;3.30;;
52964;SDS011;42923;53.220;6.528;2023-05-02T03:36:25;19.15;;;4.43;;
52964;SDS011;42923;53.220;6.528;2023-05-02T03:38:53;6.07;;;1.95;;
52964;SDS011;42923;53.220;6.528;2023-05-02T03:41:19;9.00;;;2.65;;
52964;SDS011;42923;53.220;6.528;2023-05-02T03:43:51;8.05;;;2.55;;
52964;SDS011;42923;53.220;6.528;2023-05-02T03:46:20;11.70;;;2.85;;
52964;SDS011;42923;53.220;6.528;2023-05-02T03:48:46;5.20;;;2.10;;
52964;SDS011;42923;53.220;6.528;2023-05-02T03:51:11;10.40;;;2.38;;
52964;SDS011;42923;53.220;6.528;2023-05-02T03:53:41;9.88;;;2.53;;
52964;SDS011;42923;53.220;6.528;2023-05-02T03:56:08;5.75;;;2.35;;
52964;SDS011;42923;53.220;6.528;2023-05-02T04:01:13;8.98;;;2.55;;
52964;SDS011;42923;53.220;6.528;2023-05-02T04:03:42;12.77;;;2.15;;
52964;SDS011;42923;53.220;6.528;2023-05-02T04:06:09;12.30;;;2.08;;
52964;SDS011;42923;53.220;6.528;2023-05-02T04:08:35;8.48;;;2.13;;
52964;SDS011;42923;53.220;6.528;2023-05-02T04:11:01;12.98;;;2.85;;
52964;SDS011;42923;53.220;6.528;2023-05-02T04:13:28;10.00;;;2.83;;
52964;SDS011;42923;53.220;6.528;2023-05-02T04:15:55;7.82;;;2.03;;
52964;SDS011;42923;53.220;6.528;2023-05-02T04:18:23;4.18;;;1.90;;
52964;SDS011;42923;53.220;6.528;2023-05-02T04:20:49;7.25;;;1.58;;
52964;SDS011;42923;53.220;6.528;2023-05-02T04:23:16;5.65;;;2.60;;
52964;SDS011;42923;53.220;6.528;2023-05-02T04:25:50;8.73;;;3.08;;
52964;SDS011;42923;53.220;6.528;2023-05-02T04:28:22;5.97;;;2.13;;
52964;SDS011;42923;53.220;6.528;2023-05-02T04:30:48;11.18;;;2.55;;
52964;SDS011;42923;53.220;6.528;2023-05-02T04:33:16;8.07;;;2.10;;
52964;SDS011;42923;53.220;6.528;2023-05-02T04:35:43;9.82;;;2.42;;
52964;SDS011;42923;53.220;6.528;2023-05-02T04:38:11;7.38;;;2.28;;
52964;SDS011;42923;53.220;6.528;2023-05-02T04:40:37;25.65;;;3.45;;
52964;SDS011;42923;53.220;6.528;2023-05-02T04:43:05;8.23;;;2.65;;
52964;SDS011;42923;53.220;6.528;2023-05-02T04:45:39;15.93;;;2.67;;
52964;SDS011;42923;53.220;6.528;2023-05-02T04:48:10;10.23;;;2.00;;
52964;SDS011;42923;53.220;6.528;2023-05-02T04:50:36;8.43;;;4.03;;
52964;SDS011;42923;53.220;6.528;2023-05-02T04:53:03;11.43;;;2.92;;
52964;SDS011;42923;53.220;6.528;2023-05-02T04:55:30;11.15;;;3.28;;
52964;SDS011;42923;53.220;6.528;2023-05-02T04:57:55;5.70;;;2.22;;
52964;SDS011;42923;53.220;6.528;2023-05-02T05:00:22;8.02;;;3.10;;
52964;SDS011;42923;53.220;6.528;2023-05-02T05:02:48;14.40;;;2.85;;
52964;SDS011;42923;53.220;6.528;2023-05-02T05:05:14;12.70;;;3.50;;
52964;SDS011;42923;53.220;6.528;2023-05-02T05:07:40;12.15;;;2.97;;
52964;SDS011;42923;53.220;6.528;2023-05-02T05:10:07;13.77;;;3.28;;
52964;SDS011;42923;53.220;6.528;2023-05-02T05:12:40;11.90;;;3.47;;
52964;SDS011;42923;53.220;6.528;2023-05-02T05:15:07;11.52;;;3.17;;
52964;SDS011;42923;53.220;6.528;2023-05-02T05:17:33;9.18;;;2.83;;
52964;SDS011;42923;53.220;6.528;2023-05-02T05:20:00;8.05;;;3.10;;
52964;SDS011;42923;53.220;6.528;2023-05-02T05:22:26;15.55;;;3.22;;
52964;SDS011;42923;53.220;6.528;2023-05-02T05:24:52;13.32;;;3.03;;
52964;SDS011;42923;53.220;6.528;2023-05-02T05:27:19;9.65;;;3.15;;
52964;SDS011;42923;53.220;6.528;2023-05-02T05:29:45;13.55;;;3.45;;
52964;SDS011;42923;53.220;6.528;2023-05-02T05:32:12;9.88;;;3.13;;
52964;SDS011;42923;53.220;6.528;2023-05-02T05:34:38;12.88;;;3.22;;
52964;SDS011;42923;53.220;6.528;2023-05-02T05:37:04;8.77;;;2.97;;
52964;SDS011;42923;53.220;6.528;2023-05-02T05:39:30;5.93;;;2.50;;
52964;SDS011;42923;53.220;6.528;2023-05-02T05:41:58;8.50;;;3.00;;
52964;SDS011;42923;53.220;6.528;2023-05-02T05:44:25;16.80;;;2.90;;
52964;SDS011;42923;53.220;6.528;2023-05-02T05:46:51;16.77;;;3.63;;
52964;SDS011;42923;53.220;6.528;2023-05-02T05:49:20;7.10;;;3.25;;
52964;SDS011;42923;53.220;6.528;2023-05-02T05:51:46;8.90;;;3.15;;
52964;SDS011;42923;53.220;6.528;2023-05-02T05:54:13;7.93;;;2.85;;
52964;SDS011;42923;53.220;6.528;2023-05-02T05:56:40;14.32;;;3.40;;
52964;SDS011;42923;53.220;6.528;2023-05-02T05:59:13;8.32;;;2.55;;
52964;SDS011;42923;53.220;6.528;2023-05-02T06:01:39;8.85;;;3.70;;
52964;SDS011;42923;53.220;6.528;2023-05-02T06:04:05;11.23;;;3.55;;
52964;SDS011;42923;53.220;6.528;2023-05-02T06:06:34;37.92;;;4.88;;
52964;SDS011;42923;53.220;6.528;2023-05-02T06:09:01;5.50;;;1.67;;
52964;SDS011;42923;53.220;6.528;2023-05-02T06:11:29;11.43;;;3.13;;
52964;SDS011;42923;53.220;6.528;2023-05-02T06:13:55;9.70;;;2.65;;
52964;SDS011;42923;53.220;6.528;2023-05-02T06:16:21;11.30;;;3.47;;
52964;SDS011;42923;53.220;6.528;2023-05-02T06:18:48;12.77;;;3.00;;
52964;SDS011;42923;53.220;6.528;2023-05-02T06:21:15;11.32;;;3.35;;
52964;SDS011;42923;53.220;6.528;2023-05-02T06:23:40;15.73;;;3.33;;
52964;SDS011;42923;53.220;6.528;2023-05-02T06:26:06;13.88;;;3.45;;
52964;SDS011;42923;53.220;6.528;2023-05-02T06:28:32;13.10;;;3.65;;
52964;SDS011;42923;53.220;6.528;2023-05-02T06:30:58;13.73;;;3.30;;
52964;SDS011;42923;53.220;6.528;2023-05-02T06:33:25;14.75;;;3.13;;
52964;SDS011;42923;53.220;6.528;2023-05-02T06:35:54;20.30;;;4.15;;
52964;SDS011;42923;53.220;6.528;2023-05-02T06:38:21;9.45;;;3.33;;
52964;SDS011;42923;53.220;6.528;2023-05-02T06:40:47;13.93;;;3.13;;
52964;SDS011;42923;53.220;6.528;2023-05-02T06:43:13;8.75;;;2.58;;
52964;SDS011;42923;53.220;6.528;2023-05-02T06:45:40;9.43;;;2.60;;
52964;SDS011;42923;53.220;6.528;2023-05-02T06:48:06;15.07;;;2.90;;
52964;SDS011;42923;53.220;6.528;2023-05-02T06:50:32;6.50;;;2.50;;
52964;SDS011;42923;53.220;6.528;2023-05-02T06:52:58;5.75;;;2.90;;
52964;SDS011;42923;53.220;6.528;2023-05-02T06:55:24;7.43;;;2.40;;
52964;SDS011;42923;53.220;6.528;2023-05-02T06:57:50;9.40;;;3.53;;
52964;SDS011;42923;53.220;6.528;2023-05-02T07:00:16;7.13;;;2.85;;
52964;SDS011;42923;53.220;6.528;2023-05-02T07:02:43;8.52;;;2.75;;
52964;SDS011;42923;53.220;6.528;2023-05-02T07:05:13;12.48;;;3.38;;
52964;SDS011;42923;53.220;6.528;2023-05-02T07:07:42;11.63;;;3.78;;
52964;SDS011;42923;53.220;6.528;2023-05-02T07:10:08;12.95;;;2.97;;
52964;SDS011;42923;53.220;6.528;2023-05-02T07:12:35;8.05;;;3.17;;
52964;SDS011;42923;53.220;6.528;2023-05-02T07:15:01;10.95;;;2.95;;
52964;SDS011;42923;53.220;6.528;2023-05-02T07:17:27;18.25;;;3.42;;
52964;SDS011;42923;53.220;6.528;2023-05-02T07:19:53;7.78;;;3.42;;
52964;SDS011;42923;53.220;6.528;2023-05-02T07:22:19;10.05;;;3.05;;
52964;SDS011;42923;53.220;6.528;2023-05-02T07:24:45;7.22;;;2.78;;
52964;SDS011;42923;53.220;6.528;2023-05-02T07:27:11;6.93;;;2.63;;
52964;SDS011;42923;53.220;6.528;2023-05-02T07:29:37;14.80;;;2.78;;
52964;SDS011;42923;53.220;6.528;2023-05-02T07:32:03;8.05;;;2.67;;
52964;SDS011;42923;53.220;6.528;2023-05-02T07:34:30;11.35;;;3.83;;
52964;SDS011;42923;53.220;6.528;2023-05-02T07:36:56;10.15;;;3.05;;
52964;SDS011;42923;53.220;6.528;2023-05-02T07:39:23;5.65;;;2.60;;
52964;SDS011;42923;53.220;6.528;2023-05-02T07:41:52;5.70;;;2.42;;
52964;SDS011;42923;53.220;6.528;2023-05-02T07:44:18;7.25;;;2.63;;
52964;SDS011;42923;53.220;6.528;2023-05-02T07:46:45;10.23;;;2.10;;
52964;SDS011;42923;53.220;6.528;2023-05-02T07:49:11;6.28;;;2.53;;
52964;SDS011;42923;53.220;6.528;2023-05-02T07:51:37;6.60;;;1.70;;
52964;SDS011;42923;53.220;6.528;2023-05-02T07:54:16;7.07;;;1.92;;
52964;SDS011;42923;53.220;6.528;2023-05-02T07:56:42;8.00;;;2.53;;
52964;SDS011;42923;53.220;6.528;2023-05-02T07:59:08;4.72;;;1.98;;
52964;SDS011;42923;53.220;6.528;2023-05-02T08:01:34;5.20;;;1.80;;
52964;SDS011;42923;53.220;6.528;2023-05-02T08:04:00;5.97;;;1.88;;
52964;SDS011;42923;53.220;6.528;2023-05-02T08:06:26;6.53;;;2.20;;
52964;SDS011;42923;53.220;6.528;2023-05-02T08:08:52;7.22;;;1.60;;
52964;SDS011;42923;53.220;6.528;2023-05-02T08:11:18;4.70;;;2.10;;
52964;SDS011;42923;53.220;6.528;2023-05-02T08:13:46;5.10;;;1.55;;
52964;SDS011;42923;53.220;6.528;2023-05-02T08:16:12;7.68;;;1.50;;
52964;SDS011;42923;53.220;6.528;2023-05-02T08:18:37;4.88;;;1.88;;
52964;SDS011;42923;53.220;6.528;2023-05-02T08:21:03;5.18;;;1.45;;
52964;SDS011;42923;53.220;6.528;2023-05-02T08:23:29;5.10;;;1.50;;
52964;SDS011;42923;53.220;6.528;2023-05-02T08:25:55;4.00;;;2.15;;
52964;SDS011;42923;53.220;6.528;2023-05-02T08:28:21;6.03;;;1.30;;
52964;SDS011;42923;53.220;6.528;2023-05-02T08:30:46;5.57;;;1.50;;
52964;SDS011;42923;53.220;6.528;2023-05-02T08:33:13;6.45;;;1.73;;
52964;SDS011;42923;53.220;6.528;2023-05-02T08:35:39;8.07;;;1.75;;
52964;SDS011;42923;53.220;6.528;2023-05-02T08:38:05;4.20;;;1.60;;
52964;SDS011;42923;53.220;6.528;2023-05-02T08:40:34;3.72;;;1.33;;
52964;SDS011;42923;53.220;6.528;2023-05-02T08:43:02;3.60;;;1.33;;
52964;SDS011;42923;53.220;6.528;2023-05-02T08:45:30;5.68;;;1.83;;
52964;SDS011;42923;53.220;6.528;2023-05-02T08:48:04;5.00;;;1.42;;
52964;SDS011;42923;53.220;6.528;2023-05-02T08:50:35;6.18;;;1.55;;
52964;SDS011;42923;53.220;6.528;2023-05-02T08:53:06;3.95;;;1.77;;
52964;SDS011;42923;53.220;6.528;2023-05-02T08:55:33;5.78;;;1.90;;
52964;SDS011;42923;53.220;6.528;2023-05-02T08:58:04;2.25;;;1.38;;
52964;SDS011;42923;53.220;6.528;2023-05-02T09:00:31;5.05;;;1.38;;
52964;SDS011;42923;53.220;6.528;2023-05-02T09:03:12;3.05;;;1.45;;
52964;SDS011;42923;53.220;6.528;2023-05-02T09:05:49;3.25;;;1.42;;
52964;SDS011;42923;53.220;6.528;2023-05-02T09:08:22;5.30;;;2.15;;
52964;SDS011;42923;53.220;6.528;2023-05-02T09:10:48;4.95;;;1.60;;
52964;SDS011;42923;53.220;6.528;2023-05-02T09:16:01;7.97;;;1.90;;
52964;SDS011;42923;53.220;6.528;2023-05-02T09:18:29;6.47;;;1.65;;
52964;SDS011;42923;53.220;6.528;2023-05-02T09:21:03;5.80;;;1.67;;
52964;SDS011;42923;53.220;6.528;2023-05-02T09:23:41;2.60;;;1.38;;
52964;SDS011;42923;53.220;6.528;2023-05-02T09:28:55;2.10;;;1.30;;
52964;SDS011;42923;53.220;6.528;2023-05-02T09:31:22;2.78;;;1.50;;
52964;SDS011;42923;53.220;6.528;2023-05-02T09:33:50;3.72;;;1.50;;
52964;SDS011;42923;53.220;6.528;2023-05-02T09:36:17;4.45;;;1.70;;
52964;SDS011;42923;53.220;6.528;2023-05-02T09:38:45;3.38;;;1.15;;
52964;SDS011;42923;53.220;6.528;2023-05-02T09:41:12;2.55;;;1.15;;
52964;SDS011;42923;53.220;6.528;2023-05-02T09:43:38;5.90;;;1.60;;
52964;SDS011;42923;53.220;6.528;2023-05-02T09:46:08;3.25;;;1.23;;
52964;SDS011;42923;53.220;6.528;2023-05-02T09:48:51;6.20;;;1.73;;
52964;SDS011;42923;53.220;6.528;2023-05-02T09:51:21;5.88;;;1.55;;
52964;SDS011;42923;53.220;6.528;2023-05-02T09:53:48;8.30;;;1.60;;
52964;SDS011;42923;53.220;6.528;2023-05-02T09:56:15;3.30;;;1.30;;
52964;SDS011;42923;53.220;6.528;2023-05-02T09:58:41;3.25;;;1.40;;
52964;SDS011;42923;53.220;6.528;2023-05-02T10:01:07;3.58;;;1.10;;
52964;SDS011;42923;53.220;6.528;2023-05-02T10:03:39;4.07;;;1.38;;
52964;SDS011;42923;53.220;6.528;2023-05-02T10:06:05;3.70;;;1.38;;
52964;SDS011;42923;53.220;6.528;2023-05-02T10:08:33;3.72;;;1.20;;
52964;SDS011;42923;53.220;6.528;2023-05-02T10:10:59;3.22;;;1.15;;
52964;SDS011;42923;53.220;6.528;2023-05-02T10:13:29;3.95;;;1.42;;
52964;SDS011;42923;53.220;6.528;2023-05-02T10:16:02;4.47;;;1.30;;
52964;SDS011;42923;53.220;6.528;2023-05-02T10:18:37;5.18;;;1.33;;
52964;SDS011;42923;53.220;6.528;2023-05-02T10:21:09;5.50;;;1.33;;
52964;SDS011;42923;53.220;6.528;2023-05-02T10:23:36;4.50;;;2.00;;
52964;SDS011;42923;53.220;6.528;2023-05-02T10:26:07;7.22;;;1.40;;
52964;SDS011;42923;53.220;6.528;2023-05-02T10:28:33;3.42;;;1.40;;
52964;SDS011;42923;53.220;6.528;2023-05-02T10:30:59;3.35;;;1.08;;
52964;SDS011;42923;53.220;6.528;2023-05-02T10:33:27;3.78;;;1.38;;
52964;SDS011;42923;53.220;6.528;2023-05-02T10:35:55;5.57;;;1.63;;
52964;SDS011;42923;53.220;6.528;2023-05-02T10:38:21;4.18;;;1.38;;
52964;SDS011;42923;53.220;6.528;2023-05-02T10:40:52;2.80;;;1.50;;
52964;SDS011;42923;53.220;6.528;2023-05-02T10:43:32;7.20;;;1.50;;
52964;SDS011;42923;53.220;6.528;2023-05-02T10:45:59;2.67;;;1.42;;
52964;SDS011;42923;53.220;6.528;2023-05-02T10:48:27;7.13;;;1.90;;
52964;SDS011;42923;53.220;6.528;2023-05-02T10:50:57;1.83;;;1.25;;
52964;SDS011;42923;53.220;6.528;2023-05-02T10:56:18;5.05;;;1.70;;
52964;SDS011;42923;53.220;6.528;2023-05-02T10:58:46;2.42;;;1.17;;
52964;SDS011;42923;53.220;6.528;2023-05-02T11:06:31;3.42;;;1.17;;
52964;SDS011;42923;53.220;6.528;2023-05-02T11:09:44;4.15;;;1.30;;
52964;SDS011;42923;53.220;6.528;2023-05-02T11:11:47;5.88;;;1.58;;
52964;SDS011;42923;53.220;6.528;2023-05-02T11:19:22;2.70;;;1.23;;
52964;SDS011;42923;53.220;6.528;2023-05-02T11:21:49;1.98;;;1.15;;
52964;SDS011;42923;53.220;6.528;2023-05-02T11:29:57;4.30;;;1.33;;
52964;SDS011;42923;53.220;6.528;2023-05-02T11:35:20;1.63;;;1.10;;
52964;SDS011;42923;53.220;6.528;2023-05-02T11:40:18;2.42;;;1.38;;
52964;SDS011;42923;53.220;6.528;2023-05-02T11:42:44;2.75;;;1.10;;
52964;SDS011;42923;53.220;6.528;2023-05-02T11:45:11;3.65;;;1.13;;
52964;SDS011;42923;53.220;6.528;2023-05-02T11:47:36;1.67;;;1.10;;
52964;SDS011;42923;53.220;6.528;2023-05-02T11:50:06;4.40;;;1.08;;
52964;SDS011;42923;53.220;6.528;2023-05-02T11:52:37;2.25;;;0.90;;
52964;SDS011;42923;53.220;6.528;2023-05-02T11:55:04;2.65;;;0.98;;
52964;SDS011;42923;53.220;6.528;2023-05-02T11:57:34;1.60;;;0.85;;
52964;SDS011;42923;53.220;6.528;2023-05-02T12:00:00;1.67;;;0.80;;
52964;SDS011;42923;53.220;6.528;2023-05-02T12:02:34;3.15;;;0.82;;
52964;SDS011;42923;53.220;6.528;2023-05-02T12:05:07;7.78;;;1.10;;
52964;SDS011;42923;53.220;6.528;2023-05-02T12:07:38;1.30;;;0.70;;
52964;SDS011;42923;53.220;6.528;2023-05-02T12:10:11;1.90;;;1.08;;
52964;SDS011;42923;53.220;6.528;2023-05-02T12:12:38;3.08;;;0.80;;
52964;SDS011;42923;53.220;6.528;2023-05-02T12:15:08;3.42;;;0.73;;
52964;SDS011;42923;53.220;6.528;2023-05-02T12:17:36;1.48;;;0.70;;
52964;SDS011;42923;53.220;6.528;2023-05-02T12:20:07;1.25;;;0.65;;
52964;SDS011;42923;53.220;6.528;2023-05-02T12:22:33;1.80;;;0.70;;
52964;SDS011;42923;53.220;6.528;2023-05-02T12:25:00;1.65;;;0.70;;
52964;SDS011;42923;53.220;6.528;2023-05-02T12:27:27;1.80;;;1.08;;
52964;SDS011;42923;53.220;6.528;2023-05-02T12:29:53;2.60;;;0.82;;
52964;SDS011;42923;53.220;6.528;2023-05-02T12:32:28;1.02;;;0.70;;
52964;SDS011;42923;53.220;6.528;2023-05-02T12:34:55;2.67;;;1.15;;
52964;SDS011;42923;53.220;6.528;2023-05-02T12:37:22;3.17;;;1.00;;
52964;SDS011;42923;53.220;6.528;2023-05-02T12:39:49;2.70;;;1.00;;
52964;SDS011;42923;53.220;6.528;2023-05-02T12:42:15;2.22;;;0.90;;
52964;SDS011;42923;53.220;6.528;2023-05-02T12:44:42;1.05;;;0.63;;
52964;SDS011;42923;53.220;6.528;2023-05-02T12:47:10;2.55;;;0.63;;
52964;SDS011;42923;53.220;6.528;2023-05-02T12:49:55;2.83;;;1.10;;
52964;SDS011;42923;53.220;6.528;2023-05-02T12:55:17;2.17;;;0.98;;
52964;SDS011;42923;53.220;6.528;2023-05-02T12:57:44;3.20;;;1.05;;
52964;SDS011;42923;53.220;6.528;2023-05-02T13:00:10;4.97;;;1.52;;
52964;SDS011;42923;53.220;6.528;2023-05-02T13:02:36;4.95;;;1.10;;
52964;SDS011;42923;53.220;6.528;2023-05-02T13:05:12;2.55;;;1.00;;
52964;SDS011;42923;53.220;6.528;2023-05-02T13:07:44;2.78;;;0.88;;
52964;SDS011;42923;53.220;6.528;2023-05-02T13:10:11;5.57;;;1.60;;
52964;SDS011;42923;53.220;6.528;2023-05-02T13:12:37;4.85;;;1.17;;
52964;SDS011;42923;53.220;6.528;2023-05-02T13:15:04;3.25;;;1.17;;
52964;SDS011;42923;53.220;6.528;2023-05-02T13:17:30;3.35;;;0.82;;
52964;SDS011;42923;53.220;6.528;2023-05-02T13:19:56;4.50;;;1.25;;
52964;SDS011;42923;53.220;6.528;2023-05-02T13:22:22;3.13;;;0.98;;
52964;SDS011;42923;53.220;6.528;2023-05-02T13:24:48;4.63;;;1.45;;
52964;SDS011;42923;53.220;6.528;2023-05-02T13:27:14;4.28;;;1.70;;
52964;SDS011;42923;53.220;6.528;2023-05-02T13:29:42;4.38;;;1.30;;
52964;SDS011;42923;53.220;6.528;2023-05-02T13:32:12;3.53;;;0.90;;
52964;SDS011;42923;53.220;6.528;2023-05-02T13:34:38;1.77;;;1.00;;
52964;SDS011;42923;53.220;6.528;2023-05-02T13:37:04;3.47;;;1.13;;
52964;SDS011;42923;53.220;6.528;2023-05-02T13:39:29;2.63;;;1.17;;
52964;SDS011;42923;53.220;6.528;2023-05-02T13:41:55;1.15;;;0.80;;
52964;SDS011;42923;53.220;6.528;2023-05-02T13:44:21;3.45;;;1.25;;
52964;SDS011;42923;53.220;6.528;2023-05-02T13:46:47;2.70;;;1.17;;
52964;SDS011;42923;53.220;6.528;2023-05-02T13:49:12;2.78;;;0.90;;
52964;SDS011;42923;53.220;6.528;2023-05-02T13:51:38;3.88;;;0.90;;
52964;SDS011;42923;53.220;6.528;2023-05-02T13:54:04;1.63;;;0.80;;
52964;SDS011;42923;53.220;6.528;2023-05-02T13:56:30;1.15;;;0.85;;
52964;SDS011;42923;53.220;6.528;2023-05-02T13:58:56;1.88;;;0.90;;
52964;SDS011;42923;53.220;6.528;2023-05-02T14:01:21;6.03;;;0.90;;
52964;SDS011;42923;53.220;6.528;2023-05-02T14:03:48;3.08;;;0.88;;
52964;SDS011;42923;53.220;6.528;2023-05-02T14:06:14;2.78;;;0.98;;
52964;SDS011;42923;53.220;6.528;2023-05-02T14:08:40;5.22;;;1.33;;
52964;SDS011;42923;53.220;6.528;2023-05-02T14:11:06;1.33;;;0.93;;
52964;SDS011;42923;53.220;6.528;2023-05-02T14:13:31;4.20;;;1.70;;
52964;SDS011;42923;53.220;6.528;2023-05-02T14:15:57;3.35;;;1.20;;
52964;SDS011;42923;53.220;6.528;2023-05-02T14:18:23;4.88;;;1.02;;
52964;SDS011;42923;53.220;6.528;2023-05-02T14:20:49;1.30;;;1.02;;
52964;SDS011;42923;53.220;6.528;2023-05-02T14:23:14;3.53;;;0.90;;
52964;SDS011;42923;53.220;6.528;2023-05-02T14:25:40;3.42;;;1.17;;
52964;SDS011;42923;53.220;6.528;2023-05-02T14:28:06;6.30;;;1.10;;
52964;SDS011;42923;53.220;6.528;2023-05-02T14:30:32;8.18;;;1.60;;
52964;SDS011;42923;53.220;6.528;2023-05-02T14:32:57;5.88;;;1.40;;
52964;SDS011;42923;53.220;6.528;2023-05-02T14:35:23;4.00;;;1.88;;
52964;SDS011;42923;53.220;6.528;2023-05-02T14:37:49;7.55;;;1.40;;
52964;SDS011;42923;53.220;6.528;2023-05-02T14:40:15;1.90;;;1.27;;
52964;SDS011;42923;53.220;6.528;2023-05-02T14:42:41;5.90;;;1.92;;
52964;SDS011;42923;53.220;6.528;2023-05-02T14:45:07;4.00;;;1.13;;
52964;SDS011;42923;53.220;6.528;2023-05-02T14:47:34;5.00;;;1.55;;
52964;SDS011;42923;53.220;6.528;2023-05-02T14:50:03;3.65;;;1.20;;
52964;SDS011;42923;53.220;6.528;2023-05-02T14:52:30;4.88;;;1.30;;
52964;SDS011;42923;53.220;6.528;2023-05-02T14:54:59;4.80;;;1.38;;
52964;SDS011;42923;53.220;6.528;2023-05-02T14:57:26;5.15;;;1.38;;
52964;SDS011;42923;53.220;6.528;2023-05-02T14:59:52;1.92;;;1.10;;
52964;SDS011;42923;53.220;6.528;2023-05-02T15:02:18;3.13;;;1.10;;
52964;SDS011;42923;53.220;6.528;2023-05-02T15:04:44;2.47;;;1.25;;
52964;SDS011;42923;53.220;6.528;2023-05-02T15:07:09;8.20;;;1.38;;
52964;SDS011;42923;53.220;6.528;2023-05-02T15:09:35;7.10;;;1.50;;
52964;SDS011;42923;53.220;6.528;2023-05-02T15:12:01;5.53;;;1.40;;
52964;SDS011;42923;53.220;6.528;2023-05-02T15:14:27;8.38;;;1.90;;
52964;SDS011;42923;53.220;6.528;2023-05-02T15:16:53;5.65;;;1.77;;
52964;SDS011;42923;53.220;6.528;2023-05-02T15:19:19;5.90;;;1.33;;
52964;SDS011;42923;53.220;6.528;2023-05-02T15:21:47;2.17;;;1.33;;
52964;SDS011;42923;53.220;6.528;2023-05-02T15:24:14;2.15;;;1.08;;
52964;SDS011;42923;53.220;6.528;2023-05-02T15:26:40;7.35;;;1.85;;
52964;SDS011;42923;53.220;6.528;2023-05-02T15:29:06;21.20;;;14.15;;
52964;SDS011;42923;53.220;6.528;2023-05-02T15:31:32;3.25;;;1.38;;
52964;SDS011;42923;53.220;6.528;2023-05-02T15:33:58;2.97;;;1.70;;
52964;SDS011;42923;53.220;6.528;2023-05-02T15:36:27;5.97;;;2.17;;
52964;SDS011;42923;53.220;6.528;2023-05-02T15:38:54;4.50;;;1.27;;
52964;SDS011;42923;53.220;6.528;2023-05-02T15:41:20;1.60;;;0.80;;
52964;SDS011;42923;53.220;6.528;2023-05-02T15:43:48;4.40;;;1.42;;
52964;SDS011;42923;53.220;6.528;2023-05-02T15:46:14;2.17;;;1.50;;
52964;SDS011;42923;53.220;6.528;2023-05-02T15:48:40;6.05;;;1.10;;